createdAt,value
2018-08-31T00:02:11.361Z,18.70
2018-08-31T00:05:03.870Z,18.70
2018-08-31T00:08:56.024Z,18.70
2018-08-31T00:12:24.362Z,18.70
2018-08-31T00:14:52.235Z,18.70
2018-08-31T00:17:19.846Z,18.70
2018-08-31T00:19:47.414Z,18.70
2018-08-31T00:22:15.211Z,18.70
2018-08-31T00:26:05.197Z,18.70
2018-08-31T00:29:07.003Z,18.70
2018-08-31T00:33:59.275Z,18.70
2018-08-31T00:39:21.466Z,18.70
2018-08-31T00:44:11.211Z,18.60
2018-08-31T00:46:38.805Z,18.50
2018-08-31T00:49:06.357Z,18.40
2018-08-31T00:51:34.097Z,18.40
2018-08-31T00:54:01.673Z,18.40
2018-08-31T00:56:29.247Z,18.40
2018-08-31T00:58:57.008Z,18.40
2018-08-31T01:01:25.180Z,18.40
2018-08-31T01:03:52.728Z,18.40
2018-08-31T01:06:20.728Z,18.40
2018-08-31T01:08:48.317Z,18.40
2018-08-31T01:11:15.896Z,18.40
2018-08-31T01:13:43.856Z,18.50
2018-08-31T01:16:11.399Z,18.50
2018-08-31T01:18:39.000Z,18.50
2018-08-31T01:21:06.819Z,18.50
2018-08-31T01:23:34.416Z,18.50
2018-08-31T01:26:02.016Z,18.50
2018-08-31T01:28:29.723Z,18.50
2018-08-31T01:30:57.300Z,18.50
2018-08-31T01:33:24.819Z,18.50
2018-08-31T01:35:52.631Z,18.50
2018-08-31T01:38:22.200Z,18.40
2018-08-31T01:40:49.778Z,18.40
2018-08-31T01:43:17.579Z,18.40
2018-08-31T01:45:45.172Z,18.40
2018-08-31T01:48:12.747Z,18.30
2018-08-31T01:50:46.403Z,18.30
2018-08-31T01:53:13.964Z,18.20
2018-08-31T01:55:41.599Z,18.20
2018-08-31T01:58:09.452Z,18.20
2018-08-31T02:00:37.035Z,18.10
2018-08-31T02:03:04.843Z,18.10
2018-08-31T02:05:33.027Z,18.00
2018-08-31T02:08:00.620Z,18.00
2018-08-31T02:10:28.191Z,18.00
2018-08-31T02:12:55.627Z,17.90
2018-08-31T02:15:23.207Z,17.90
2018-08-31T02:17:50.764Z,17.80
2018-08-31T02:20:18.651Z,17.80
2018-08-31T02:22:46.207Z,17.70
2018-08-31T02:25:13.768Z,17.70
2018-08-31T02:27:41.628Z,17.70
2018-08-31T02:30:09.232Z,17.60
2018-08-31T02:32:36.964Z,17.60
2018-08-31T02:35:04.724Z,17.60
2018-08-31T02:37:32.351Z,17.50
2018-08-31T02:40:00.384Z,17.50
2018-08-31T02:42:28.044Z,17.40
2018-08-31T02:44:55.640Z,17.40
2018-08-31T02:47:23.681Z,17.30
2018-08-31T02:49:51.245Z,17.30
2018-08-31T02:52:18.851Z,17.30
2018-08-31T02:54:46.492Z,17.30
2018-08-31T02:57:14.104Z,17.20
2018-08-31T02:59:41.932Z,17.20
2018-08-31T03:02:09.549Z,17.20
2018-08-31T03:04:37.091Z,17.10
2018-08-31T03:07:04.915Z,17.10
2018-08-31T03:09:32.487Z,17.10
2018-08-31T03:12:00.189Z,17.10
2018-08-31T03:14:28.134Z,17.00
2018-08-31T03:16:55.731Z,17.00
2018-08-31T03:19:23.280Z,17.00
2018-08-31T03:21:51.104Z,17.00
2018-08-31T03:24:19.028Z,16.90
2018-08-31T03:26:46.579Z,16.90
2018-08-31T03:29:14.608Z,16.90
2018-08-31T03:31:42.431Z,16.90
2018-08-31T03:34:10.300Z,16.90
2018-08-31T03:36:40.424Z,16.90
2018-08-31T03:39:10.199Z,16.90
2018-08-31T03:41:38.636Z,16.90
2018-08-31T03:44:06.604Z,16.80
2018-08-31T03:46:34.775Z,16.80
2018-08-31T03:49:02.343Z,16.80
2018-08-31T03:51:30.008Z,16.80
2018-08-31T03:53:57.757Z,16.80
2018-08-31T03:56:25.344Z,16.70
2018-08-31T03:58:52.916Z,16.70
2018-08-31T04:01:20.511Z,16.70
2018-08-31T04:03:48.328Z,16.70
2018-08-31T04:06:15.987Z,16.60
2018-08-31T04:08:43.671Z,16.60
2018-08-31T04:11:11.635Z,16.60
2018-08-31T04:13:39.232Z,16.60
2018-08-31T04:16:06.688Z,16.50
2018-08-31T04:18:34.476Z,16.50
2018-08-31T04:21:02.016Z,16.50
2018-08-31T04:23:29.619Z,16.40
2018-08-31T04:25:57.344Z,16.40
2018-08-31T04:28:24.964Z,16.40
2018-08-31T04:30:52.572Z,16.40
2018-08-31T04:33:20.685Z,16.40
2018-08-31T04:35:48.415Z,16.40
2018-08-31T04:38:16.039Z,16.30
2018-08-31T04:40:43.875Z,16.30
2018-08-31T04:43:11.441Z,16.30
2018-08-31T04:45:39.284Z,16.30
2018-08-31T04:48:06.864Z,16.30
2018-08-31T04:50:34.741Z,16.40
2018-08-31T04:53:02.939Z,16.40
2018-08-31T04:55:30.569Z,16.40
2018-08-31T04:57:58.168Z,16.40
2018-08-31T05:00:26.046Z,16.50
2018-08-31T05:02:53.825Z,16.50
2018-08-31T05:05:21.426Z,16.60
2018-08-31T05:07:48.960Z,16.70
2018-08-31T05:10:16.796Z,16.70
2018-08-31T05:12:44.379Z,16.70
2018-08-31T05:15:11.927Z,16.80
2018-08-31T05:17:40.200Z,16.90
2018-08-31T05:20:07.823Z,17.00
2018-08-31T05:22:35.741Z,17.10
2018-08-31T05:25:03.289Z,17.20
2018-08-31T05:27:30.897Z,17.30
2018-08-31T05:29:58.607Z,17.30
2018-08-31T05:32:26.294Z,17.40
2018-08-31T05:34:53.860Z,17.60
2018-08-31T05:37:21.640Z,17.70
2018-08-31T05:39:49.240Z,17.90
2018-08-31T05:44:45.258Z,18.30
2018-08-31T05:47:12.837Z,18.40
2018-08-31T05:49:40.412Z,18.70
2018-08-31T05:52:08.264Z,18.80
2018-08-31T05:54:35.951Z,19.00
2018-08-31T05:57:03.643Z,19.30
2018-08-31T05:59:31.152Z,19.50
2018-08-31T06:01:58.906Z,19.80
2018-08-31T06:04:26.690Z,20.00
2018-08-31T06:06:54.260Z,20.30
2018-08-31T06:09:21.985Z,20.50
2018-08-31T06:11:49.573Z,20.70
2018-08-31T06:14:17.092Z,20.90
2018-08-31T06:16:44.921Z,21.20
2018-08-31T06:19:12.443Z,21.40
2018-08-31T06:21:40.032Z,21.60
2018-08-31T06:24:07.754Z,21.90
2018-08-31T06:26:35.390Z,22.10
2018-08-31T06:29:03.252Z,22.30
2018-08-31T06:31:31.037Z,22.60
2018-08-31T06:33:58.602Z,22.80
2018-08-31T06:36:32.435Z,23.00
2018-08-31T06:38:59.988Z,23.30
2018-08-31T06:41:27.560Z,23.50
2018-08-31T06:43:55.517Z,23.70
2018-08-31T06:46:23.147Z,23.90
2018-08-31T06:48:50.728Z,24.20
2018-08-31T06:51:18.400Z,24.40
2018-08-31T06:53:45.956Z,24.60
2018-08-31T06:56:13.601Z,24.80
2018-08-31T06:58:41.529Z,25.00
2018-08-31T07:01:09.112Z,25.10
2018-08-31T07:03:36.788Z,25.20
2018-08-31T07:06:04.652Z,25.30
2018-08-31T07:08:32.203Z,25.50
2018-08-31T07:10:59.898Z,25.70
2018-08-31T07:13:27.620Z,25.90
2018-08-31T07:15:55.290Z,26.10
2018-08-31T07:18:22.991Z,26.30
2018-08-31T07:20:50.592Z,26.40
2018-08-31T07:23:19.047Z,26.70
2018-08-31T07:25:46.608Z,26.80
2018-08-31T07:28:14.540Z,27.10
2018-08-31T07:30:42.135Z,27.20
2018-08-31T07:33:09.704Z,27.40
2018-08-31T07:35:37.637Z,27.50
2018-08-31T07:38:05.164Z,27.60
2018-08-31T07:40:32.743Z,27.70
2018-08-31T07:43:00.672Z,27.80
2018-08-31T07:45:28.248Z,27.90
2018-08-31T07:47:55.926Z,28.00
2018-08-31T07:50:23.864Z,28.10
2018-08-31T07:52:51.425Z,28.20
2018-08-31T07:55:19.042Z,28.40
2018-08-31T07:57:46.790Z,28.40
2018-08-31T08:00:14.411Z,28.40
2018-08-31T08:02:41.982Z,28.40
2018-08-31T08:05:09.757Z,28.40
2018-08-31T08:07:37.297Z,28.50
2018-08-31T08:10:05.010Z,28.50
2018-08-31T08:12:32.967Z,28.50
2018-08-31T08:15:00.549Z,28.50
2018-08-31T08:17:28.098Z,28.50
2018-08-31T08:19:55.699Z,28.60
2018-08-31T08:22:23.559Z,28.50
2018-08-31T08:24:51.388Z,28.60
2018-08-31T08:27:19.006Z,28.60
2018-08-31T08:29:46.461Z,28.70
2018-08-31T08:32:14.108Z,28.70
2018-08-31T08:34:41.691Z,28.70
2018-08-31T08:37:09.421Z,28.60
2018-08-31T08:39:37.012Z,28.60
2018-08-31T08:42:04.612Z,28.60
2018-08-31T08:44:32.327Z,28.50
2018-08-31T08:46:59.953Z,28.30
2018-08-31T08:49:27.528Z,28.20
2018-08-31T08:51:55.444Z,28.00
2018-08-31T08:54:23.001Z,27.80
2018-08-31T08:56:50.560Z,27.60
2018-08-31T08:59:18.389Z,27.40
2018-08-31T09:01:45.958Z,27.20
2018-08-31T09:04:13.556Z,26.90
2018-08-31T09:09:09.882Z,26.50
2018-08-31T09:11:37.505Z,26.30
2018-08-31T09:14:05.626Z,26.10
2018-08-31T09:16:33.415Z,25.80
2018-08-31T09:19:01.667Z,25.60
2018-08-31T09:21:29.266Z,25.40
2018-08-31T09:23:56.852Z,25.20
2018-08-31T09:26:24.625Z,25.00
2018-08-31T09:28:52.202Z,24.80
2018-08-31T09:31:19.861Z,24.60
2018-08-31T09:33:48.149Z,24.40
2018-08-31T09:36:15.756Z,24.30
2018-08-31T09:38:43.632Z,24.30
2018-08-31T09:41:11.670Z,24.40
2018-08-31T09:43:39.436Z,24.50
2018-08-31T09:46:07.244Z,24.80
2018-08-31T09:48:34.945Z,25.10
2018-08-31T09:51:02.737Z,25.40
2018-08-31T09:53:30.279Z,25.70
2018-08-31T09:55:58.189Z,26.00
2018-08-31T09:58:26.089Z,26.30
2018-08-31T10:00:59.537Z,26.60
2018-08-31T10:03:27.113Z,26.90
2018-08-31T10:05:56.108Z,27.20
2018-08-31T10:08:25.415Z,27.60
2018-08-31T10:10:53.101Z,28.00
2018-08-31T10:13:21.266Z,28.30
2018-08-31T10:15:48.793Z,28.70
2018-08-31T10:18:16.343Z,29.10
2018-08-31T10:20:43.945Z,29.40
2018-08-31T10:23:11.604Z,29.70
2018-08-31T10:25:39.196Z,29.90
2018-08-31T10:28:07.168Z,30.10
2018-08-31T10:30:34.835Z,30.20
2018-08-31T10:33:02.405Z,30.30
2018-08-31T10:35:30.222Z,30.40
2018-08-31T10:37:57.740Z,30.50
2018-08-31T10:40:25.656Z,30.60
2018-08-31T10:42:53.465Z,30.70
2018-08-31T10:45:21.064Z,30.90
2018-08-31T10:47:48.651Z,30.90
2018-08-31T10:50:16.494Z,31.10
2018-08-31T10:52:44.117Z,31.20
2018-08-31T10:55:12.094Z,31.40
2018-08-31T10:57:39.600Z,31.60
2018-08-31T11:00:07.459Z,31.70
2018-08-31T11:02:35.435Z,31.90
2018-08-31T11:05:03.064Z,32.00
2018-08-31T11:07:30.657Z,32.00
2018-08-31T11:09:58.697Z,32.10
2018-08-31T11:12:26.589Z,32.10
2018-08-31T11:14:55.174Z,32.10
2018-08-31T11:17:23.076Z,32.10
2018-08-31T11:19:50.786Z,32.20
2018-08-31T11:22:18.436Z,32.30
2018-08-31T11:24:46.833Z,32.40
2018-08-31T11:27:15.407Z,32.50
2018-08-31T11:29:44.281Z,32.60
2018-08-31T11:32:12.222Z,32.70
2018-08-31T11:34:39.831Z,32.70
2018-08-31T11:37:08.177Z,32.70
2018-08-31T11:39:36.057Z,32.70
2018-08-31T11:42:03.647Z,32.70
2018-08-31T11:44:31.963Z,32.60
2018-08-31T11:47:00.787Z,32.60
2018-08-31T11:49:28.457Z,32.50
2018-08-31T11:51:56.079Z,32.50
2018-08-31T11:54:23.748Z,32.40
2018-08-31T11:56:51.378Z,32.30
2018-08-31T11:59:18.969Z,32.30
2018-08-31T12:01:46.554Z,32.30
2018-08-31T12:04:14.088Z,32.30
2018-08-31T12:06:41.824Z,32.30
2018-08-31T12:09:09.985Z,32.30
2018-08-31T12:11:38.000Z,32.30
2018-08-31T12:14:06.024Z,32.10
2018-08-31T12:16:34.018Z,32.10
2018-08-31T12:19:01.726Z,32.10
2018-08-31T12:21:29.288Z,32.00
2018-08-31T12:23:57.242Z,31.90
2018-08-31T12:26:24.837Z,31.80
2018-08-31T12:28:52.464Z,31.70
2018-08-31T12:31:20.564Z,31.70
2018-08-31T12:33:48.872Z,31.60
2018-08-31T12:36:16.700Z,31.60
2018-08-31T12:38:44.571Z,31.60
2018-08-31T12:41:12.225Z,31.60
2018-08-31T12:43:40.010Z,31.60
2018-08-31T12:46:08.002Z,31.60
2018-08-31T12:48:35.544Z,31.70
2018-08-31T12:51:03.326Z,31.70
2018-08-31T12:53:31.016Z,31.70
2018-08-31T12:55:58.624Z,31.70
2018-08-31T12:58:26.424Z,31.70
2018-08-31T13:00:54.208Z,31.70
2018-08-31T13:03:21.814Z,31.70
2018-08-31T13:05:49.644Z,31.70
2018-08-31T13:08:17.200Z,31.60
2018-08-31T13:10:44.754Z,31.60
2018-08-31T13:13:12.857Z,31.50
2018-08-31T13:15:40.400Z,31.50
2018-08-31T13:18:08.000Z,31.40
2018-08-31T13:20:36.161Z,31.20
2018-08-31T13:23:03.990Z,31.20
2018-08-31T13:25:31.556Z,31.10
2018-08-31T13:27:59.567Z,31.00
2018-08-31T13:30:27.148Z,30.90
2018-08-31T13:32:54.733Z,30.80
2018-08-31T13:35:22.734Z,30.70
2018-08-31T13:37:50.408Z,30.60
2018-08-31T13:40:17.986Z,30.40
2018-08-31T13:42:45.873Z,30.20
2018-08-31T13:45:13.524Z,30.10
2018-08-31T13:47:41.150Z,29.90
2018-08-31T13:50:09.019Z,29.90
2018-08-31T13:52:36.928Z,29.70
2018-08-31T13:55:04.731Z,29.60
2018-08-31T13:57:32.324Z,29.50
2018-08-31T13:59:59.936Z,29.50
2018-08-31T14:02:27.858Z,29.50
2018-08-31T14:04:55.411Z,29.40
2018-08-31T14:07:23.271Z,29.30
2018-08-31T14:09:50.866Z,29.30
2018-08-31T14:12:18.489Z,29.20
2018-08-31T14:14:46.147Z,29.20
2018-08-31T14:17:13.811Z,29.10
2018-08-31T14:19:41.638Z,29.10
2018-08-31T14:22:09.471Z,29.00
2018-08-31T14:24:37.080Z,28.90
2018-08-31T14:27:04.816Z,28.80
2018-08-31T14:29:49.886Z,28.70
2018-08-31T14:32:23.156Z,28.60
2018-08-31T14:35:28.835Z,28.50
2018-08-31T14:37:56.460Z,28.30
2018-08-31T14:40:46.371Z,28.20
2018-08-31T14:43:52.473Z,28.10
2018-08-31T14:46:41.636Z,27.90
2018-08-31T14:49:09.496Z,27.70
2018-08-31T14:51:46.114Z,27.60
2018-08-31T14:54:13.840Z,27.40
2018-08-31T14:56:43.539Z,27.30
2018-08-31T14:59:25.435Z,27.20
2018-08-31T15:01:53.001Z,27.00
2018-08-31T15:04:20.577Z,26.90
2018-08-31T15:06:48.320Z,26.80
2018-08-31T15:09:15.869Z,26.70
2018-08-31T15:11:43.900Z,26.60
2018-08-31T15:14:11.544Z,26.60
2018-08-31T15:16:39.196Z,26.50
2018-08-31T15:21:34.384Z,26.30
2018-08-31T15:24:02.522Z,26.20
2018-08-31T15:26:30.124Z,26.10
2018-08-31T15:28:57.678Z,26.10
2018-08-31T15:31:25.765Z,26.00
2018-08-31T15:33:53.338Z,25.90
2018-08-31T15:36:21.304Z,25.90
2018-08-31T15:38:49.180Z,25.80
2018-08-31T15:41:16.863Z,25.80
2018-08-31T15:43:44.491Z,25.80
2018-08-31T15:46:12.385Z,25.70
2018-08-31T15:48:40.027Z,25.70
2018-08-31T15:51:08.478Z,25.70
2018-08-31T15:53:36.336Z,25.60
2018-08-31T15:56:04.079Z,25.60
2018-08-31T15:58:31.716Z,25.60
2018-08-31T16:00:59.732Z,25.60
2018-08-31T16:03:27.304Z,25.60
2018-08-31T16:05:54.914Z,25.60
2018-08-31T16:08:22.688Z,25.60
2018-08-31T16:10:50.261Z,25.60
2018-08-31T16:13:17.886Z,25.50
2018-08-31T16:15:45.716Z,25.60
2018-08-31T16:18:13.585Z,25.50
2018-08-31T16:20:41.174Z,25.50
2018-08-31T16:23:08.807Z,25.50
2018-08-31T16:25:36.780Z,25.50
2018-08-31T16:28:04.400Z,25.40
2018-08-31T16:30:32.067Z,25.40
2018-08-31T16:32:59.944Z,25.40
2018-08-31T16:35:27.541Z,25.30
2018-08-31T16:37:55.764Z,25.30
2018-08-31T16:40:23.343Z,25.20
2018-08-31T16:42:51.052Z,25.10
2018-08-31T16:45:19.051Z,25.00
2018-08-31T16:47:46.615Z,25.00
2018-08-31T16:50:14.282Z,24.90
2018-08-31T16:52:42.072Z,24.80
2018-08-31T16:55:09.720Z,24.80
2018-08-31T16:57:37.533Z,24.70
2018-08-31T17:00:05.287Z,24.60
2018-08-31T17:02:32.884Z,24.60
2018-08-31T17:05:00.620Z,24.50
2018-08-31T17:07:28.244Z,24.40
2018-08-31T17:09:56.085Z,24.40
2018-08-31T17:12:23.804Z,24.30
2018-08-31T17:14:51.375Z,24.30
2018-08-31T17:17:19.015Z,24.20
2018-08-31T17:22:14.664Z,24.10
2018-08-31T17:24:42.288Z,24.00
2018-08-31T17:28:18.482Z,23.90
2018-08-31T17:30:46.112Z,23.90
2018-08-31T17:33:19.639Z,23.80
2018-08-31T17:35:52.948Z,23.70
2018-08-31T17:38:20.324Z,23.60
2018-08-31T17:40:47.951Z,23.60
2018-08-31T17:43:15.985Z,23.50
2018-08-31T17:45:43.583Z,23.50
2018-08-31T17:48:11.203Z,23.40
2018-08-31T17:50:39.040Z,23.40
2018-08-31T17:53:06.702Z,23.30
2018-08-31T17:55:34.335Z,23.30
2018-08-31T17:58:02.308Z,23.30
2018-08-31T18:00:29.856Z,23.20
2018-08-31T18:02:57.492Z,23.20
2018-08-31T18:05:25.191Z,23.20
2018-08-31T18:07:52.881Z,23.10
2018-08-31T18:10:20.476Z,23.10
2018-08-31T18:12:48.051Z,23.10
2018-08-31T18:15:15.690Z,23.00
2018-08-31T18:17:43.602Z,23.00
2018-08-31T18:20:11.233Z,23.00
2018-08-31T18:22:38.827Z,22.90
2018-08-31T18:25:06.806Z,22.90
2018-08-31T18:27:34.416Z,22.90
2018-08-31T18:30:02.075Z,22.90
2018-08-31T18:32:29.941Z,22.80
2018-08-31T18:34:57.500Z,22.80
2018-08-31T18:37:25.066Z,22.80
2018-08-31T18:39:52.819Z,22.70
2018-08-31T18:42:20.420Z,22.70
2018-08-31T18:44:47.993Z,22.70
2018-08-31T18:47:16.647Z,22.60
2018-08-31T18:49:44.267Z,22.60
2018-08-31T18:52:12.365Z,22.50
2018-08-31T18:54:40.028Z,22.50
2018-08-31T18:57:07.583Z,22.40
2018-08-31T18:59:35.165Z,22.30
2018-08-31T19:02:02.907Z,22.30
2018-08-31T19:04:30.481Z,22.20
2018-08-31T19:06:58.157Z,22.20
2018-08-31T19:09:26.240Z,22.10
2018-08-31T19:11:53.814Z,22.10
2018-08-31T19:14:21.463Z,22.10
2018-08-31T19:16:49.229Z,22.00
2018-08-31T19:19:17.107Z,22.00
2018-08-31T19:21:45.277Z,22.00
2018-08-31T19:24:12.927Z,22.00
2018-08-31T19:26:40.742Z,21.90
2018-08-31T19:29:08.373Z,21.90
2018-08-31T19:31:35.936Z,21.90
2018-08-31T19:34:03.862Z,21.90
2018-08-31T19:36:31.478Z,21.90
2018-08-31T19:38:59.062Z,21.80
2018-08-31T19:41:26.760Z,21.80
2018-08-31T19:43:54.320Z,21.80
2018-08-31T19:46:21.928Z,21.70
2018-08-31T19:48:49.932Z,21.70
2018-08-31T19:51:17.555Z,21.70
2018-08-31T19:53:45.269Z,21.60
2018-08-31T19:56:12.849Z,21.60
2018-08-31T19:58:40.412Z,21.50
2018-08-31T20:01:08.780Z,21.50
2018-08-31T20:03:36.456Z,21.50
2018-08-31T20:06:04.571Z,21.50
2018-08-31T20:08:32.233Z,21.50
2018-08-31T20:10:59.800Z,21.50
2018-08-31T20:13:27.590Z,21.40
2018-08-31T20:15:55.332Z,21.40
2018-08-31T20:18:22.967Z,21.40
2018-08-31T20:20:50.840Z,21.40
2018-08-31T20:23:18.452Z,21.30
2018-08-31T20:25:46.095Z,21.30
2018-08-31T20:28:14.144Z,21.30
2018-08-31T20:30:41.710Z,21.30
2018-08-31T20:33:10.104Z,21.30
2018-08-31T20:35:37.827Z,21.30
2018-08-31T20:38:05.552Z,21.20
2018-08-31T20:40:33.308Z,21.20
2018-08-31T20:43:01.085Z,21.20
2018-08-31T20:45:28.713Z,21.20
2018-08-31T20:47:56.516Z,21.20
2018-08-31T20:50:24.110Z,21.20
2018-08-31T20:52:51.738Z,21.20
2018-08-31T20:55:19.673Z,21.20
2018-08-31T20:57:47.368Z,21.10
2018-08-31T21:00:36.348Z,21.10
2018-08-31T21:03:03.967Z,21.10
2018-08-31T21:05:31.524Z,21.10
2018-08-31T21:07:59.105Z,21.10
2018-08-31T21:10:26.774Z,21.00
2018-08-31T21:12:54.401Z,21.00
2018-08-31T21:15:22.658Z,21.00
2018-08-31T21:17:50.235Z,21.00
2018-08-31T21:20:17.908Z,21.00
2018-08-31T21:22:45.728Z,20.90
2018-08-31T21:25:13.434Z,20.90
2018-08-31T21:27:41.350Z,20.90
2018-08-31T21:30:08.802Z,20.90
2018-08-31T21:32:36.624Z,20.90
2018-08-31T21:35:04.382Z,20.90
2018-08-31T21:37:31.972Z,20.80
2018-08-31T21:39:59.720Z,20.80
2018-08-31T21:42:27.354Z,20.80
2018-08-31T21:44:55.127Z,20.80
2018-08-31T21:47:22.945Z,20.80
2018-08-31T21:49:50.668Z,20.80
2018-08-31T21:52:18.236Z,20.80
2018-08-31T21:54:45.930Z,20.80
2018-08-31T21:57:13.565Z,20.70
2018-08-31T21:59:41.149Z,20.70
2018-08-31T22:02:09.070Z,20.70
2018-08-31T22:04:36.789Z,20.70
2018-08-31T22:07:04.392Z,20.70
2018-08-31T22:09:32.172Z,20.70
2018-08-31T22:11:59.804Z,20.60
2018-08-31T22:14:27.407Z,20.60
2018-08-31T22:16:55.140Z,20.60
2018-08-31T22:19:22.740Z,20.60
2018-08-31T22:21:50.360Z,20.60
2018-08-31T22:24:18.250Z,20.60
2018-08-31T22:26:45.835Z,20.60
2018-08-31T22:29:13.585Z,20.60
2018-08-31T22:31:41.676Z,20.60
2018-08-31T22:34:09.333Z,20.60
2018-08-31T22:36:36.907Z,20.60
2018-08-31T22:39:07.600Z,20.50
2018-08-31T22:41:35.364Z,20.50
2018-08-31T22:44:03.091Z,20.50
2018-08-31T22:46:30.760Z,20.50
2018-08-31T22:48:58.383Z,20.50
2018-08-31T22:51:33.907Z,20.50
2018-08-31T22:54:10.532Z,20.50
2018-08-31T22:56:51.404Z,20.50
2018-08-31T22:59:18.943Z,20.50
2018-08-31T23:01:47.607Z,20.50
2018-08-31T23:04:15.578Z,20.50
2018-08-31T23:06:43.173Z,20.50
2018-08-31T23:09:10.844Z,20.50
2018-08-31T23:11:39.242Z,20.50
2018-08-31T23:14:06.891Z,20.50
2018-08-31T23:16:34.480Z,20.50
2018-08-31T23:19:02.106Z,20.40
2018-08-31T23:21:29.719Z,20.40
2018-08-31T23:23:57.420Z,20.40
2018-08-31T23:26:24.965Z,20.40
2018-08-31T23:28:52.564Z,20.30
2018-08-31T23:31:20.610Z,20.30
2018-08-31T23:33:48.557Z,20.30
2018-08-31T23:36:16.148Z,20.30
2018-08-31T23:38:44.190Z,20.20
2018-08-31T23:41:11.829Z,20.20
2018-08-31T23:43:39.472Z,20.20
2018-08-31T23:46:07.244Z,20.20
2018-08-31T23:48:34.473Z,20.10
2018-08-31T23:51:02.128Z,20.10
2018-08-31T23:53:30.239Z,20.10
2018-08-31T23:55:57.837Z,20.00
2018-08-31T23:58:25.541Z,20.00
